sensor_id;sensor_type;location;lat;lon;timestamp;P1;durP1;ratioP1;P2;durP2;ratioP2
70667;SDS011;58242;51.250;-1.118;2022-09-09T00:01:22;8.15;;;2.50;;
70667;SDS011;58242;51.250;-1.118;2022-09-09T00:04:13;7.15;;;2.65;;
70667;SDS011;58242;51.250;-1.118;2022-09-09T00:09:36;4.07;;;2.75;;
70667;SDS011;58242;51.250;-1.118;2022-09-09T00:12:18;7.03;;;2.40;;
70667;SDS011;58242;51.250;-1.118;2022-09-09T00:15:13;2.80;;;2.13;;
70667;SDS011;58242;51.250;-1.118;2022-09-09T00:17:58;4.88;;;2.55;;
70667;SDS011;58242;51.250;-1.118;2022-09-09T00:23:25;7.82;;;2.50;;
70667;SDS011;58242;51.250;-1.118;2022-09-09T00:28:52;4.82;;;2.70;;
70667;SDS011;58242;51.250;-1.118;2022-09-09T00:31:25;3.17;;;1.98;;
70667;SDS011;58242;51.250;-1.118;2022-09-09T00:33:53;3.38;;;2.30;;
70667;SDS011;58242;51.250;-1.118;2022-09-09T00:36:21;7.65;;;2.78;;
70667;SDS011;58242;51.250;-1.118;2022-09-09T00:38:52;3.33;;;2.30;;
70667;SDS011;58242;51.250;-1.118;2022-09-09T00:44:21;3.65;;;2.20;;
70667;SDS011;58242;51.250;-1.118;2022-09-09T00:57:41;4.95;;;2.50;;
70667;SDS011;58242;51.250;-1.118;2022-09-09T01:02:53;2.08;;;1.88;;
70667;SDS011;58242;51.250;-1.118;2022-09-09T01:08:54;3.95;;;2.40;;
70667;SDS011;58242;51.250;-1.118;2022-09-09T01:10:59;2.70;;;2.22;;
70667;SDS011;58242;51.250;-1.118;2022-09-09T01:15:56;2.35;;;2.00;;
70667;SDS011;58242;51.250;-1.118;2022-09-09T01:21:42;3.83;;;2.35;;
70667;SDS011;58242;51.250;-1.118;2022-09-09T01:27:04;4.13;;;2.50;;
70667;SDS011;58242;51.250;-1.118;2022-09-09T01:29:31;3.25;;;1.92;;
70667;SDS011;58242;51.250;-1.118;2022-09-09T01:34:24;3.78;;;2.15;;
70667;SDS011;58242;51.250;-1.118;2022-09-09T01:39:21;3.60;;;1.80;;
70667;SDS011;58242;51.250;-1.118;2022-09-09T01:41:46;3.42;;;2.00;;
70667;SDS011;58242;51.250;-1.118;2022-09-09T01:44:12;2.63;;;2.30;;
70667;SDS011;58242;51.250;-1.118;2022-09-09T01:46:37;2.22;;;2.05;;
70667;SDS011;58242;51.250;-1.118;2022-09-09T01:49:03;3.33;;;2.92;;
70667;SDS011;58242;51.250;-1.118;2022-09-09T01:51:32;4.88;;;2.85;;
70667;SDS011;58242;51.250;-1.118;2022-09-09T01:53:58;4.68;;;2.78;;
70667;SDS011;58242;51.250;-1.118;2022-09-09T01:58:57;4.38;;;2.20;;
70667;SDS011;58242;51.250;-1.118;2022-09-09T02:02:09;4.00;;;2.08;;
70667;SDS011;58242;51.250;-1.118;2022-09-09T02:04:41;3.33;;;2.33;;
70667;SDS011;58242;51.250;-1.118;2022-09-09T02:09:48;3.17;;;2.17;;
70667;SDS011;58242;51.250;-1.118;2022-09-09T02:12:22;6.05;;;2.70;;
70667;SDS011;58242;51.250;-1.118;2022-09-09T02:14:51;4.10;;;2.33;;
70667;SDS011;58242;51.250;-1.118;2022-09-09T02:17:24;2.85;;;2.38;;
70667;SDS011;58242;51.250;-1.118;2022-09-09T02:20:04;4.22;;;2.50;;
70667;SDS011;58242;51.250;-1.118;2022-09-09T02:22:32;3.58;;;2.60;;
70667;SDS011;58242;51.250;-1.118;2022-09-09T02:25:00;2.10;;;1.90;;
70667;SDS011;58242;51.250;-1.118;2022-09-09T02:27:27;3.90;;;2.10;;
70667;SDS011;58242;51.250;-1.118;2022-09-09T02:29:53;2.25;;;1.90;;
70667;SDS011;58242;51.250;-1.118;2022-09-09T02:32:22;3.85;;;2.15;;
70667;SDS011;58242;51.250;-1.118;2022-09-09T02:34:53;1.95;;;1.73;;
70667;SDS011;58242;51.250;-1.118;2022-09-09T02:37:23;2.92;;;1.98;;
70667;SDS011;58242;51.250;-1.118;2022-09-09T02:39:53;5.03;;;2.10;;
70667;SDS011;58242;51.250;-1.118;2022-09-09T02:42:19;1.85;;;1.75;;
70667;SDS011;58242;51.250;-1.118;2022-09-09T02:44:44;3.30;;;2.28;;
70667;SDS011;58242;51.250;-1.118;2022-09-09T02:47:16;2.80;;;2.05;;
70667;SDS011;58242;51.250;-1.118;2022-09-09T02:55:16;2.83;;;2.00;;
70667;SDS011;58242;51.250;-1.118;2022-09-09T02:57:59;2.47;;;2.17;;
70667;SDS011;58242;51.250;-1.118;2022-09-09T03:00:29;2.88;;;2.47;;
70667;SDS011;58242;51.250;-1.118;2022-09-09T03:02:55;4.35;;;2.55;;
70667;SDS011;58242;51.250;-1.118;2022-09-09T03:05:21;3.65;;;2.60;;
70667;SDS011;58242;51.250;-1.118;2022-09-09T03:07:47;6.28;;;2.78;;
70667;SDS011;58242;51.250;-1.118;2022-09-09T03:10:12;2.78;;;2.53;;
70667;SDS011;58242;51.250;-1.118;2022-09-09T03:12:38;2.50;;;2.30;;
70667;SDS011;58242;51.250;-1.118;2022-09-09T03:15:04;2.67;;;2.22;;
70667;SDS011;58242;51.250;-1.118;2022-09-09T03:17:31;3.67;;;2.40;;
70667;SDS011;58242;51.250;-1.118;2022-09-09T03:19:56;2.88;;;2.65;;
70667;SDS011;58242;51.250;-1.118;2022-09-09T03:22:23;5.18;;;2.72;;
70667;SDS011;58242;51.250;-1.118;2022-09-09T03:24:50;4.35;;;2.63;;
70667;SDS011;58242;51.250;-1.118;2022-09-09T03:27:16;4.82;;;2.97;;
70667;SDS011;58242;51.250;-1.118;2022-09-09T03:29:42;3.38;;;2.80;;
70667;SDS011;58242;51.250;-1.118;2022-09-09T03:32:07;3.95;;;3.10;;
70667;SDS011;58242;51.250;-1.118;2022-09-09T03:34:35;2.97;;;2.65;;
70667;SDS011;58242;51.250;-1.118;2022-09-09T03:37:00;6.78;;;3.03;;
70667;SDS011;58242;51.250;-1.118;2022-09-09T03:39:25;3.03;;;2.72;;
70667;SDS011;58242;51.250;-1.118;2022-09-09T03:41:51;3.85;;;3.00;;
70667;SDS011;58242;51.250;-1.118;2022-09-09T03:44:16;4.18;;;3.08;;
70667;SDS011;58242;51.250;-1.118;2022-09-09T03:46:41;4.90;;;3.38;;
70667;SDS011;58242;51.250;-1.118;2022-09-09T03:49:07;3.60;;;2.95;;
70667;SDS011;58242;51.250;-1.118;2022-09-09T03:51:32;3.70;;;2.83;;
70667;SDS011;58242;51.250;-1.118;2022-09-09T03:54:01;3.90;;;2.72;;
70667;SDS011;58242;51.250;-1.118;2022-09-09T03:56:26;3.10;;;2.80;;
70667;SDS011;58242;51.250;-1.118;2022-09-09T03:58:51;3.55;;;2.80;;
70667;SDS011;58242;51.250;-1.118;2022-09-09T04:01:17;3.75;;;3.30;;
70667;SDS011;58242;51.250;-1.118;2022-09-09T04:03:43;6.72;;;3.42;;
70667;SDS011;58242;51.250;-1.118;2022-09-09T04:06:09;4.38;;;3.42;;
70667;SDS011;58242;51.250;-1.118;2022-09-09T04:08:38;3.45;;;3.15;;
70667;SDS011;58242;51.250;-1.118;2022-09-09T04:11:04;3.28;;;3.03;;
70667;SDS011;58242;51.250;-1.118;2022-09-09T04:13:31;3.50;;;3.20;;
70667;SDS011;58242;51.250;-1.118;2022-09-09T04:15:59;5.05;;;3.20;;
70667;SDS011;58242;51.250;-1.118;2022-09-09T04:18:25;3.60;;;3.30;;
70667;SDS011;58242;51.250;-1.118;2022-09-09T04:20:53;4.22;;;3.17;;
70667;SDS011;58242;51.250;-1.118;2022-09-09T04:23:19;4.10;;;2.85;;
70667;SDS011;58242;51.250;-1.118;2022-09-09T04:25:49;4.85;;;3.20;;
70667;SDS011;58242;51.250;-1.118;2022-09-09T04:28:19;3.33;;;3.08;;
70667;SDS011;58242;51.250;-1.118;2022-09-09T04:30:46;3.70;;;3.00;;
70667;SDS011;58242;51.250;-1.118;2022-09-09T04:33:12;4.45;;;3.50;;
70667;SDS011;58242;51.250;-1.118;2022-09-09T04:35:39;4.10;;;3.70;;
70667;SDS011;58242;51.250;-1.118;2022-09-09T04:38:08;4.68;;;2.90;;
70667;SDS011;58242;51.250;-1.118;2022-09-09T04:40:34;3.67;;;3.38;;
70667;SDS011;58242;51.250;-1.118;2022-09-09T04:43:00;5.63;;;3.55;;
70667;SDS011;58242;51.250;-1.118;2022-09-09T04:45:28;3.63;;;3.28;;
70667;SDS011;58242;51.250;-1.118;2022-09-09T04:47:54;4.07;;;3.28;;
70667;SDS011;58242;51.250;-1.118;2022-09-09T04:50:20;3.88;;;3.33;;
70667;SDS011;58242;51.250;-1.118;2022-09-09T04:52:45;4.10;;;3.58;;
70667;SDS011;58242;51.250;-1.118;2022-09-09T04:55:10;3.30;;;3.10;;
70667;SDS011;58242;51.250;-1.118;2022-09-09T04:57:37;3.30;;;3.00;;
70667;SDS011;58242;51.250;-1.118;2022-09-09T05:00:03;3.50;;;3.08;;
70667;SDS011;58242;51.250;-1.118;2022-09-09T05:02:29;3.22;;;2.92;;
70667;SDS011;58242;51.250;-1.118;2022-09-09T05:04:55;3.38;;;3.05;;
70667;SDS011;58242;51.250;-1.118;2022-09-09T05:07:21;4.57;;;3.35;;
70667;SDS011;58242;51.250;-1.118;2022-09-09T05:09:46;4.82;;;3.55;;
70667;SDS011;58242;51.250;-1.118;2022-09-09T05:12:13;3.47;;;3.17;;
70667;SDS011;58242;51.250;-1.118;2022-09-09T05:14:38;3.90;;;3.60;;
70667;SDS011;58242;51.250;-1.118;2022-09-09T05:17:04;4.00;;;3.47;;
70667;SDS011;58242;51.250;-1.118;2022-09-09T05:19:30;3.10;;;2.90;;
70667;SDS011;58242;51.250;-1.118;2022-09-09T05:21:56;3.95;;;3.22;;
70667;SDS011;58242;51.250;-1.118;2022-09-09T05:24:21;3.58;;;3.20;;
70667;SDS011;58242;51.250;-1.118;2022-09-09T05:26:48;3.35;;;3.10;;
70667;SDS011;58242;51.250;-1.118;2022-09-09T05:29:13;6.75;;;3.15;;
70667;SDS011;58242;51.250;-1.118;2022-09-09T05:31:39;3.53;;;2.80;;
70667;SDS011;58242;51.250;-1.118;2022-09-09T05:34:04;3.30;;;3.10;;
70667;SDS011;58242;51.250;-1.118;2022-09-09T05:36:29;3.75;;;3.28;;
70667;SDS011;58242;51.250;-1.118;2022-09-09T05:38:55;3.50;;;3.17;;
70667;SDS011;58242;51.250;-1.118;2022-09-09T05:41:20;2.75;;;2.55;;
70667;SDS011;58242;51.250;-1.118;2022-09-09T05:43:47;2.75;;;2.55;;
70667;SDS011;58242;51.250;-1.118;2022-09-09T05:46:14;3.75;;;3.42;;
70667;SDS011;58242;51.250;-1.118;2022-09-09T05:48:42;4.68;;;3.22;;
70667;SDS011;58242;51.250;-1.118;2022-09-09T05:53:37;3.90;;;3.03;;
70667;SDS011;58242;51.250;-1.118;2022-09-09T05:56:04;3.60;;;2.90;;
70667;SDS011;58242;51.250;-1.118;2022-09-09T05:58:34;3.25;;;3.00;;
70667;SDS011;58242;51.250;-1.118;2022-09-09T06:01:00;5.95;;;3.30;;
70667;SDS011;58242;51.250;-1.118;2022-09-09T06:03:30;5.45;;;3.33;;
70667;SDS011;58242;51.250;-1.118;2022-09-09T06:05:59;4.90;;;3.30;;
70667;SDS011;58242;51.250;-1.118;2022-09-09T06:08:35;4.47;;;3.50;;
70667;SDS011;58242;51.250;-1.118;2022-09-09T06:11:12;3.72;;;3.38;;
70667;SDS011;58242;51.250;-1.118;2022-09-09T06:13:37;4.28;;;3.35;;
70667;SDS011;58242;51.250;-1.118;2022-09-09T06:16:04;3.17;;;2.90;;
70667;SDS011;58242;51.250;-1.118;2022-09-09T06:18:30;4.05;;;3.50;;
70667;SDS011;58242;51.250;-1.118;2022-09-09T06:21:05;3.85;;;3.45;;
70667;SDS011;58242;51.250;-1.118;2022-09-09T06:23:32;4.93;;;4.53;;
70667;SDS011;58242;51.250;-1.118;2022-09-09T06:28:27;4.90;;;4.50;;
70667;SDS011;58242;51.250;-1.118;2022-09-09T06:30:59;4.78;;;4.35;;
70667;SDS011;58242;51.250;-1.118;2022-09-09T06:33:35;4.10;;;3.78;;
70667;SDS011;58242;51.250;-1.118;2022-09-09T06:36:06;4.03;;;3.72;;
70667;SDS011;58242;51.250;-1.118;2022-09-09T06:41:00;5.75;;;4.60;;
70667;SDS011;58242;51.250;-1.118;2022-09-09T06:43:26;7.47;;;4.85;;
70667;SDS011;58242;51.250;-1.118;2022-09-09T06:45:53;5.22;;;4.32;;
70667;SDS011;58242;51.250;-1.118;2022-09-09T06:48:23;7.80;;;5.07;;
70667;SDS011;58242;51.250;-1.118;2022-09-09T06:50:48;4.47;;;4.07;;
70667;SDS011;58242;51.250;-1.118;2022-09-09T06:53:18;6.10;;;4.32;;
70667;SDS011;58242;51.250;-1.118;2022-09-09T06:55:46;5.20;;;3.55;;
70667;SDS011;58242;51.250;-1.118;2022-09-09T06:58:12;4.00;;;3.60;;
70667;SDS011;58242;51.250;-1.118;2022-09-09T07:00:38;5.07;;;3.90;;
70667;SDS011;58242;51.250;-1.118;2022-09-09T07:03:03;5.72;;;3.83;;
70667;SDS011;58242;51.250;-1.118;2022-09-09T07:05:29;4.90;;;4.25;;
70667;SDS011;58242;51.250;-1.118;2022-09-09T07:07:54;5.35;;;3.67;;
70667;SDS011;58242;51.250;-1.118;2022-09-09T07:10:20;4.07;;;3.08;;
70667;SDS011;58242;51.250;-1.118;2022-09-09T07:12:49;7.70;;;3.35;;
70667;SDS011;58242;51.250;-1.118;2022-09-09T07:15:16;3.40;;;3.10;;
70667;SDS011;58242;51.250;-1.118;2022-09-09T07:17:43;3.17;;;2.88;;
70667;SDS011;58242;51.250;-1.118;2022-09-09T07:20:09;3.80;;;2.80;;
70667;SDS011;58242;51.250;-1.118;2022-09-09T07:22:34;3.90;;;2.83;;
70667;SDS011;58242;51.250;-1.118;2022-09-09T07:25:00;3.33;;;2.72;;
70667;SDS011;58242;51.250;-1.118;2022-09-09T07:27:27;3.00;;;2.50;;
70667;SDS011;58242;51.250;-1.118;2022-09-09T07:29:52;4.13;;;2.78;;
70667;SDS011;58242;51.250;-1.118;2022-09-09T07:32:19;3.55;;;2.88;;
70667;SDS011;58242;51.250;-1.118;2022-09-09T07:34:45;2.50;;;2.30;;
70667;SDS011;58242;51.250;-1.118;2022-09-09T07:37:11;2.97;;;2.75;;
70667;SDS011;58242;51.250;-1.118;2022-09-09T07:39:38;3.85;;;2.83;;
70667;SDS011;58242;51.250;-1.118;2022-09-09T07:42:04;2.28;;;2.08;;
70667;SDS011;58242;51.250;-1.118;2022-09-09T07:44:30;3.78;;;2.65;;
70667;SDS011;58242;51.250;-1.118;2022-09-09T07:46:57;2.33;;;2.13;;
70667;SDS011;58242;51.250;-1.118;2022-09-09T07:49:22;2.90;;;2.22;;
70667;SDS011;58242;51.250;-1.118;2022-09-09T07:51:48;2.67;;;2.30;;
70667;SDS011;58242;51.250;-1.118;2022-09-09T07:54:15;2.83;;;2.13;;
70667;SDS011;58242;51.250;-1.118;2022-09-09T07:56:44;5.55;;;2.55;;
70667;SDS011;58242;51.250;-1.118;2022-09-09T07:59:12;1.77;;;1.67;;
70667;SDS011;58242;51.250;-1.118;2022-09-09T08:01:48;2.72;;;2.28;;
70667;SDS011;58242;51.250;-1.118;2022-09-09T08:04:18;5.32;;;1.83;;
70667;SDS011;58242;51.250;-1.118;2022-09-09T08:06:49;2.55;;;2.08;;
70667;SDS011;58242;51.250;-1.118;2022-09-09T08:09:17;4.22;;;2.13;;
70667;SDS011;58242;51.250;-1.118;2022-09-09T08:11:43;6.25;;;2.38;;
70667;SDS011;58242;51.250;-1.118;2022-09-09T08:14:09;3.78;;;2.20;;
70667;SDS011;58242;51.250;-1.118;2022-09-09T08:16:37;5.50;;;2.30;;
70667;SDS011;58242;51.250;-1.118;2022-09-09T08:19:05;2.47;;;2.28;;
70667;SDS011;58242;51.250;-1.118;2022-09-09T08:21:32;3.40;;;2.35;;
70667;SDS011;58242;51.250;-1.118;2022-09-09T08:24:00;2.85;;;2.65;;
70667;SDS011;58242;51.250;-1.118;2022-09-09T08:28:56;2.47;;;2.35;;
70667;SDS011;58242;51.250;-1.118;2022-09-09T08:31:27;2.55;;;2.40;;
70667;SDS011;58242;51.250;-1.118;2022-09-09T08:33:54;2.08;;;1.90;;
70667;SDS011;58242;51.250;-1.118;2022-09-09T08:36:21;2.28;;;2.13;;
70667;SDS011;58242;51.250;-1.118;2022-09-09T08:38:49;3.03;;;2.63;;
70667;SDS011;58242;51.250;-1.118;2022-09-09T08:43:41;2.00;;;1.90;;
70667;SDS011;58242;51.250;-1.118;2022-09-09T08:46:16;2.88;;;2.28;;
70667;SDS011;58242;51.250;-1.118;2022-09-09T08:51:26;3.40;;;2.22;;
70667;SDS011;58242;51.250;-1.118;2022-09-09T08:53:55;2.25;;;2.13;;
70667;SDS011;58242;51.250;-1.118;2022-09-09T08:56:25;2.35;;;1.98;;
70667;SDS011;58242;51.250;-1.118;2022-09-09T08:58:53;1.92;;;1.83;;
70667;SDS011;58242;51.250;-1.118;2022-09-09T09:12:00;2.72;;;1.80;;
70667;SDS011;58242;51.250;-1.118;2022-09-09T09:14:30;2.03;;;1.92;;
70667;SDS011;58242;51.250;-1.118;2022-09-09T09:17:06;2.17;;;1.92;;
70667;SDS011;58242;51.250;-1.118;2022-09-09T09:19:37;2.42;;;2.20;;
70667;SDS011;58242;51.250;-1.118;2022-09-09T09:22:20;3.35;;;2.20;;
70667;SDS011;58242;51.250;-1.118;2022-09-09T09:30:01;2.75;;;2.55;;
70667;SDS011;58242;51.250;-1.118;2022-09-09T09:32:40;2.38;;;2.17;;
70667;SDS011;58242;51.250;-1.118;2022-09-09T09:35:20;1.95;;;1.85;;
70667;SDS011;58242;51.250;-1.118;2022-09-09T09:37:46;2.00;;;1.90;;
70667;SDS011;58242;51.250;-1.118;2022-09-09T09:40:13;2.35;;;2.17;;
70667;SDS011;58242;51.250;-1.118;2022-09-09T09:42:54;2.08;;;1.98;;
70667;SDS011;58242;51.250;-1.118;2022-09-09T09:45:34;3.97;;;2.08;;
70667;SDS011;58242;51.250;-1.118;2022-09-09T09:48:08;2.28;;;2.05;;
70667;SDS011;58242;51.250;-1.118;2022-09-09T09:50:35;2.13;;;1.73;;
70667;SDS011;58242;51.250;-1.118;2022-09-09T09:53:27;1.92;;;1.83;;
70667;SDS011;58242;51.250;-1.118;2022-09-09T09:58:22;1.88;;;1.50;;
70667;SDS011;58242;51.250;-1.118;2022-09-09T10:00:50;1.80;;;1.70;;
70667;SDS011;58242;51.250;-1.118;2022-09-09T10:03:35;3.50;;;2.10;;
70667;SDS011;58242;51.250;-1.118;2022-09-09T10:06:05;1.70;;;1.60;;
70667;SDS011;58242;51.250;-1.118;2022-09-09T10:08:33;1.90;;;1.80;;
70667;SDS011;58242;51.250;-1.118;2022-09-09T10:13:51;1.98;;;1.80;;
70667;SDS011;58242;51.250;-1.118;2022-09-09T10:16:32;1.88;;;1.77;;
70667;SDS011;58242;51.250;-1.118;2022-09-09T10:19:11;1.90;;;1.80;;
70667;SDS011;58242;51.250;-1.118;2022-09-09T10:21:52;2.47;;;1.88;;
70667;SDS011;58242;51.250;-1.118;2022-09-09T10:30:13;1.98;;;1.88;;
70667;SDS011;58242;51.250;-1.118;2022-09-09T10:35:52;2.45;;;1.90;;
70667;SDS011;58242;51.250;-1.118;2022-09-09T10:39:03;1.90;;;1.80;;
70667;SDS011;58242;51.250;-1.118;2022-09-09T10:41:39;2.58;;;1.80;;
70667;SDS011;58242;51.250;-1.118;2022-09-09T10:47:05;1.85;;;1.75;;
70667;SDS011;58242;51.250;-1.118;2022-09-09T11:02:43;1.90;;;1.80;;
70667;SDS011;58242;51.250;-1.118;2022-09-09T11:05:10;1.88;;;1.77;;
70667;SDS011;58242;51.250;-1.118;2022-09-09T11:12:50;1.67;;;1.58;;
70667;SDS011;58242;51.250;-1.118;2022-09-09T11:15:20;2.22;;;2.03;;
70667;SDS011;58242;51.250;-1.118;2022-09-09T11:17:55;1.70;;;1.60;;
70667;SDS011;58242;51.250;-1.118;2022-09-09T11:20:23;1.92;;;1.83;;
70667;SDS011;58242;51.250;-1.118;2022-09-09T11:23:01;1.90;;;1.80;;
70667;SDS011;58242;51.250;-1.118;2022-09-09T11:25:33;2.38;;;2.20;;
70667;SDS011;58242;51.250;-1.118;2022-09-09T11:38:32;1.70;;;1.60;;
70667;SDS011;58242;51.250;-1.118;2022-09-09T11:41:07;1.70;;;1.70;;
70667;SDS011;58242;51.250;-1.118;2022-09-09T11:43:53;1.77;;;1.67;;
70667;SDS011;58242;51.250;-1.118;2022-09-09T11:46:22;1.80;;;1.70;;
70667;SDS011;58242;51.250;-1.118;2022-09-09T11:49:02;1.58;;;1.58;;
70667;SDS011;58242;51.250;-1.118;2022-09-09T11:51:30;2.00;;;1.90;;
70667;SDS011;58242;51.250;-1.118;2022-09-09T12:01:38;2.42;;;1.75;;
70667;SDS011;58242;51.250;-1.118;2022-09-09T12:04:41;1.90;;;1.80;;
70667;SDS011;58242;51.250;-1.118;2022-09-09T12:17:25;2.17;;;2.07;;
70667;SDS011;58242;51.250;-1.118;2022-09-09T12:23:19;2.88;;;1.90;;
70667;SDS011;58242;51.250;-1.118;2022-09-09T12:25:55;2.42;;;2.22;;
70667;SDS011;58242;51.250;-1.118;2022-09-09T12:31:05;3.00;;;2.10;;
70667;SDS011;58242;51.250;-1.118;2022-09-09T12:33:42;2.10;;;2.00;;
70667;SDS011;58242;51.250;-1.118;2022-09-09T12:36:14;2.08;;;1.85;;
70667;SDS011;58242;51.250;-1.118;2022-09-09T12:38:44;2.28;;;2.15;;
70667;SDS011;58242;51.250;-1.118;2022-09-09T12:41:50;2.28;;;2.17;;
70667;SDS011;58242;51.250;-1.118;2022-09-09T12:44:05;2.28;;;2.17;;
70667;SDS011;58242;51.250;-1.118;2022-09-09T12:46:38;2.15;;;1.95;;
70667;SDS011;58242;51.250;-1.118;2022-09-09T12:49:05;2.88;;;1.73;;
70667;SDS011;58242;51.250;-1.118;2022-09-09T12:51:55;2.00;;;1.90;;
70667;SDS011;58242;51.250;-1.118;2022-09-09T12:54:22;2.05;;;1.85;;
70667;SDS011;58242;51.250;-1.118;2022-09-09T12:56:48;2.20;;;2.10;;
70667;SDS011;58242;51.250;-1.118;2022-09-09T13:00:03;2.13;;;1.95;;
70667;SDS011;58242;51.250;-1.118;2022-09-09T13:04:49;1.73;;;1.63;;
70667;SDS011;58242;51.250;-1.118;2022-09-09T13:07:16;2.00;;;1.90;;
70667;SDS011;58242;51.250;-1.118;2022-09-09T13:09:44;1.90;;;1.80;;
70667;SDS011;58242;51.250;-1.118;2022-09-09T13:12:13;1.85;;;1.75;;
70667;SDS011;58242;51.250;-1.118;2022-09-09T13:14:42;2.25;;;2.15;;
70667;SDS011;58242;51.250;-1.118;2022-09-09T13:17:15;2.17;;;2.08;;
70667;SDS011;58242;51.250;-1.118;2022-09-09T13:19:45;2.38;;;2.28;;
70667;SDS011;58242;51.250;-1.118;2022-09-09T13:22:16;2.10;;;2.00;;
70667;SDS011;58242;51.250;-1.118;2022-09-09T13:24:47;3.25;;;2.25;;
70667;SDS011;58242;51.250;-1.118;2022-09-09T13:27:31;2.08;;;1.98;;
70667;SDS011;58242;51.250;-1.118;2022-09-09T13:29:59;2.28;;;2.17;;
70667;SDS011;58242;51.250;-1.118;2022-09-09T13:32:25;1.55;;;1.52;;
70667;SDS011;58242;51.250;-1.118;2022-09-09T13:34:52;1.88;;;1.80;;
70667;SDS011;58242;51.250;-1.118;2022-09-09T13:37:36;2.40;;;2.15;;
70667;SDS011;58242;51.250;-1.118;2022-09-09T13:40:03;1.80;;;1.70;;
70667;SDS011;58242;51.250;-1.118;2022-09-09T13:42:36;2.50;;;2.40;;
70667;SDS011;58242;51.250;-1.118;2022-09-09T13:45:17;2.13;;;2.03;;
70667;SDS011;58242;51.250;-1.118;2022-09-09T13:47:48;1.50;;;1.50;;
70667;SDS011;58242;51.250;-1.118;2022-09-09T13:52:54;2.05;;;1.95;;
70667;SDS011;58242;51.250;-1.118;2022-09-09T13:55:23;2.40;;;2.30;;
70667;SDS011;58242;51.250;-1.118;2022-09-09T13:57:54;2.17;;;1.80;;
70667;SDS011;58242;51.250;-1.118;2022-09-09T14:00:25;1.52;;;1.52;;
70667;SDS011;58242;51.250;-1.118;2022-09-09T14:02:50;2.03;;;1.63;;
70667;SDS011;58242;51.250;-1.118;2022-09-09T14:05:18;2.75;;;1.88;;
70667;SDS011;58242;51.250;-1.118;2022-09-09T14:07:44;1.58;;;1.58;;
70667;SDS011;58242;51.250;-1.118;2022-09-09T14:10:10;1.50;;;1.50;;
70667;SDS011;58242;51.250;-1.118;2022-09-09T14:12:36;1.45;;;1.45;;
70667;SDS011;58242;51.250;-1.118;2022-09-09T14:15:03;1.45;;;1.40;;
70667;SDS011;58242;51.250;-1.118;2022-09-09T14:17:30;1.50;;;1.40;;
70667;SDS011;58242;51.250;-1.118;2022-09-09T14:19:56;1.75;;;1.50;;
70667;SDS011;58242;51.250;-1.118;2022-09-09T14:22:22;1.30;;;1.30;;
70667;SDS011;58242;51.250;-1.118;2022-09-09T14:24:48;1.70;;;1.67;;
70667;SDS011;58242;51.250;-1.118;2022-09-09T14:27:14;1.80;;;1.70;;
70667;SDS011;58242;51.250;-1.118;2022-09-09T14:29:39;1.50;;;1.50;;
70667;SDS011;58242;51.250;-1.118;2022-09-09T14:32:04;1.70;;;1.60;;
70667;SDS011;58242;51.250;-1.118;2022-09-09T14:34:30;1.73;;;1.63;;
70667;SDS011;58242;51.250;-1.118;2022-09-09T14:36:57;1.52;;;1.52;;
70667;SDS011;58242;51.250;-1.118;2022-09-09T14:39:23;1.75;;;1.65;;
70667;SDS011;58242;51.250;-1.118;2022-09-09T14:41:48;1.80;;;1.70;;
70667;SDS011;58242;51.250;-1.118;2022-09-09T14:44:13;1.80;;;1.75;;
70667;SDS011;58242;51.250;-1.118;2022-09-09T14:46:38;1.83;;;1.83;;
70667;SDS011;58242;51.250;-1.118;2022-09-09T14:49:04;2.20;;;2.10;;
70667;SDS011;58242;51.250;-1.118;2022-09-09T14:51:29;2.20;;;2.20;;
70667;SDS011;58242;51.250;-1.118;2022-09-09T14:53:56;2.38;;;2.28;;
70667;SDS011;58242;51.250;-1.118;2022-09-09T14:56:24;2.33;;;2.23;;
70667;SDS011;58242;51.250;-1.118;2022-09-09T14:58:55;2.50;;;2.40;;
70667;SDS011;58242;51.250;-1.118;2022-09-09T15:01:21;2.33;;;2.08;;
70667;SDS011;58242;51.250;-1.118;2022-09-09T15:03:51;3.00;;;2.80;;
70667;SDS011;58242;51.250;-1.118;2022-09-09T15:06:18;2.53;;;2.42;;
70667;SDS011;58242;51.250;-1.118;2022-09-09T15:08:45;2.50;;;2.30;;
70667;SDS011;58242;51.250;-1.118;2022-09-09T15:11:12;3.20;;;2.70;;
70667;SDS011;58242;51.250;-1.118;2022-09-09T15:13:38;2.55;;;2.45;;
70667;SDS011;58242;51.250;-1.118;2022-09-09T15:18:34;2.85;;;2.60;;
70667;SDS011;58242;51.250;-1.118;2022-09-09T15:21:01;2.90;;;2.70;;
70667;SDS011;58242;51.250;-1.118;2022-09-09T15:23:32;2.45;;;2.25;;
70667;SDS011;58242;51.250;-1.118;2022-09-09T15:25:59;2.45;;;2.35;;
70667;SDS011;58242;51.250;-1.118;2022-09-09T15:28:24;2.35;;;2.15;;
70667;SDS011;58242;51.250;-1.118;2022-09-09T15:30:50;2.67;;;2.47;;
70667;SDS011;58242;51.250;-1.118;2022-09-09T15:33:17;2.47;;;2.38;;
70667;SDS011;58242;51.250;-1.118;2022-09-09T15:35:46;2.25;;;2.08;;
70667;SDS011;58242;51.250;-1.118;2022-09-09T15:38:12;2.22;;;2.13;;
70667;SDS011;58242;51.250;-1.118;2022-09-09T15:40:38;2.60;;;2.50;;
70667;SDS011;58242;51.250;-1.118;2022-09-09T15:43:04;2.50;;;2.30;;
70667;SDS011;58242;51.250;-1.118;2022-09-09T15:45:31;2.53;;;2.33;;
70667;SDS011;58242;51.250;-1.118;2022-09-09T15:47:58;2.00;;;1.90;;
70667;SDS011;58242;51.250;-1.118;2022-09-09T15:50:26;2.47;;;2.28;;
70667;SDS011;58242;51.250;-1.118;2022-09-09T15:52:52;2.72;;;2.45;;
70667;SDS011;58242;51.250;-1.118;2022-09-09T15:55:18;2.17;;;2.08;;
70667;SDS011;58242;51.250;-1.118;2022-09-09T15:57:45;2.50;;;2.30;;
70667;SDS011;58242;51.250;-1.118;2022-09-09T16:00:11;2.20;;;2.10;;
70667;SDS011;58242;51.250;-1.118;2022-09-09T16:02:38;2.55;;;2.45;;
70667;SDS011;58242;51.250;-1.118;2022-09-09T16:05:03;2.50;;;2.35;;
70667;SDS011;58242;51.250;-1.118;2022-09-09T16:07:29;2.78;;;2.58;;
70667;SDS011;58242;51.250;-1.118;2022-09-09T16:09:55;2.35;;;2.20;;
70667;SDS011;58242;51.250;-1.118;2022-09-09T16:12:20;2.47;;;2.28;;
70667;SDS011;58242;51.250;-1.118;2022-09-09T16:14:46;2.53;;;2.33;;
70667;SDS011;58242;51.250;-1.118;2022-09-09T16:17:11;2.35;;;2.15;;
70667;SDS011;58242;51.250;-1.118;2022-09-09T16:19:37;3.05;;;2.85;;
70667;SDS011;58242;51.250;-1.118;2022-09-09T16:22:03;3.13;;;2.72;;
70667;SDS011;58242;51.250;-1.118;2022-09-09T16:24:31;2.58;;;2.47;;
70667;SDS011;58242;51.250;-1.118;2022-09-09T16:26:56;2.50;;;2.40;;
70667;SDS011;58242;51.250;-1.118;2022-09-09T16:29:22;2.88;;;2.67;;
70667;SDS011;58242;51.250;-1.118;2022-09-09T16:31:48;3.00;;;2.80;;
70667;SDS011;58242;51.250;-1.118;2022-09-09T16:34:15;2.95;;;2.58;;
70667;SDS011;58242;51.250;-1.118;2022-09-09T16:36:42;2.53;;;2.42;;
70667;SDS011;58242;51.250;-1.118;2022-09-09T16:39:09;3.13;;;2.92;;
70667;SDS011;58242;51.250;-1.118;2022-09-09T16:41:37;2.78;;;2.55;;
70667;SDS011;58242;51.250;-1.118;2022-09-09T16:44:04;3.20;;;3.00;;
70667;SDS011;58242;51.250;-1.118;2022-09-09T16:46:31;2.72;;;2.53;;
70667;SDS011;58242;51.250;-1.118;2022-09-09T16:49:00;2.40;;;2.30;;
70667;SDS011;58242;51.250;-1.118;2022-09-09T16:51:28;2.53;;;2.42;;
70667;SDS011;58242;51.250;-1.118;2022-09-09T16:53:55;2.30;;;2.20;;
70667;SDS011;58242;51.250;-1.118;2022-09-09T16:56:23;2.97;;;2.78;;
70667;SDS011;58242;51.250;-1.118;2022-09-09T16:58:52;2.78;;;2.60;;
70667;SDS011;58242;51.250;-1.118;2022-09-09T17:01:22;3.00;;;2.80;;
70667;SDS011;58242;51.250;-1.118;2022-09-09T17:03:51;2.80;;;2.60;;
70667;SDS011;58242;51.250;-1.118;2022-09-09T17:06:18;2.67;;;2.58;;
70667;SDS011;58242;51.250;-1.118;2022-09-09T17:08:44;2.72;;;2.55;;
70667;SDS011;58242;51.250;-1.118;2022-09-09T17:11:13;3.10;;;2.88;;
70667;SDS011;58242;51.250;-1.118;2022-09-09T17:13:42;2.35;;;2.03;;
70667;SDS011;58242;51.250;-1.118;2022-09-09T17:16:08;2.47;;;2.28;;
70667;SDS011;58242;51.250;-1.118;2022-09-09T17:18:35;2.83;;;2.63;;
70667;SDS011;58242;51.250;-1.118;2022-09-09T17:21:04;2.67;;;2.47;;
70667;SDS011;58242;51.250;-1.118;2022-09-09T17:23:33;2.40;;;2.30;;
70667;SDS011;58242;51.250;-1.118;2022-09-09T17:26:05;2.42;;;2.33;;